Time;durP1;ratioP1;P1;durP2;ratioP2;P2;SDS_P1;SDS_P2;PMS_P1;PMS_P2;Temp;Humidity;BMP_temperature;BMP_pressure;BME280_temperature;BME280_humidity;BME280_pressure;Samples;Min_cycle;Max_cycle;Signal;HPM_P1;HPM_P2
2024/01/07 00:02:12;;;;;;;;;12.25;6.00;;;;;6.45;69.10;101125.63;5005571;28;45322;-68
2024/01/07 00:04:37;;;;;;;;;8.00;4.25;;;;;6.43;69.16;101130.81;5031951;28;65602;-69
2024/01/07 00:07:04;;;;;;;;;4.50;3.25;;;;;6.36;68.90;101134.31;5036090;28;69289;-69
2024/01/07 00:09:29;;;;;;;;;3.00;3.00;;;;;6.30;69.27;101144.72;5023492;28;45343;-69
2024/01/07 00:11:54;;;;;;;;;3.00;2.50;;;;;6.24;69.04;101136.94;5038689;28;45245;-69
2024/01/07 00:14:20;;;;;;;;;3.00;3.00;;;;;6.18;69.07;101136.94;5018033;28;64305;-69
2024/01/07 00:16:45;;;;;;;;;3.00;2.00;;;;;6.13;69.09;101134.38;5024349;28;65310;-69
2024/01/07 00:19:10;;;;;;;;;6.50;2.00;;;;;6.11;69.26;101143.91;5013736;28;45422;-70
2024/01/07 00:21:36;;;;;;;;;4.00;3.00;;;;;6.08;69.38;101138.72;5020825;28;69254;-69
2024/01/07 00:24:01;;;;;;;;;3.75;2.00;;;;;6.08;69.24;101139.56;5030329;28;67339;-69
2024/01/07 00:26:26;;;;;;;;;3.75;2.00;;;;;6.11;69.31;101136.13;5027903;28;62864;-70
2024/01/07 00:28:52;;;;;;;;;4.50;2.75;;;;;6.11;69.28;101143.03;5034988;28;71935;-69
2024/01/07 00:31:17;;;;;;;;;2.00;2.00;;;;;6.14;69.34;101136.09;5036954;28;66853;-69
2024/01/07 00:33:42;;;;;;;;;5.00;4.00;;;;;6.16;69.09;101139.56;5031040;28;64294;-70
2024/01/07 00:36:08;;;;;;;;;7.25;3.75;;;;;6.17;69.18;101133.50;5012674;28;46182;-69
2024/01/07 00:38:33;;;;;;;;;1.75;1.75;;;;;6.17;68.88;101143.03;5002431;28;45495;-70
2024/01/07 00:40:58;;;;;;;;;6.25;3.00;;;;;6.14;69.16;101133.50;5024185;28;68337;-70
2024/01/07 00:43:24;;;;;;;;;3.25;3.00;;;;;6.15;69.23;101144.78;5003166;28;66647;-69
2024/01/07 00:45:49;;;;;;;;;4.50;3.00;;;;;6.14;69.13;101137.84;5019935;28;76656;-69
2024/01/07 00:48:15;;;;;;;;;3.00;3.00;;;;;6.15;69.07;101153.44;5038013;28;59965;-69
2024/01/07 00:50:40;;;;;;;;;4.25;3.00;;;;;6.14;69.36;101138.69;5030537;28;45222;-69
2024/01/07 00:53:05;;;;;;;;;6.00;2.25;;;;;6.15;69.07;101153.44;5019691;28;58551;-69
2024/01/07 00:55:31;;;;;;;;;2.75;2.75;;;;;6.15;69.21;101152.56;5019056;28;69576;-69
2024/01/07 00:57:56;;;;;;;;;6.75;3.75;;;;;6.12;68.84;101144.78;5015718;28;73196;-69
2024/01/07 01:00:22;;;;;;;;;4.25;2.25;;;;;6.12;68.71;101156.03;5027522;28;66033;-69
2024/01/07 01:02:47;;;;;;;;;3.25;1.00;;;;;6.12;69.05;101152.56;5033163;28;45568;-69
2024/01/07 01:05:12;;;;;;;;;1.00;1.00;;;;;6.10;68.68;101147.38;5035387;28;73382;-68
2024/01/07 01:07:38;;;;;;;;;3.50;3.00;;;;;6.07;68.57;101152.56;5016816;28;45244;-69
2024/01/07 01:10:03;;;;;;;;;2.00;1.00;;;;;6.07;68.45;101147.38;5034128;28;69689;-68
2024/01/07 01:12:29;;;;;;;;;3.75;2.00;;;;;6.08;68.39;101154.31;5035855;28;45530;-69
2024/01/07 01:14:54;;;;;;;;;2.75;2.00;;;;;6.03;68.27;101150.84;5035161;28;65504;-69
2024/01/07 01:17:20;;;;;;;;;3.00;1.25;;;;;5.98;68.39;101157.78;5035632;28;45348;-69
2024/01/07 01:19:45;;;;;;;;;3.50;1.00;;;;;5.96;68.63;101160.38;5041790;28;57465;-68
2024/01/07 01:22:10;;;;;;;;;1.00;1.00;;;;;5.92;68.44;101161.22;5020118;28;73448;-69
2024/01/07 01:24:36;;;;;;;;;3.75;2.00;;;;;5.86;68.44;101153.41;5040521;28;56758;-69
2024/01/07 01:27:01;;;;;;;;;1.00;1.00;;;;;5.85;68.71;101159.50;5019733;28;70715;-68
2024/01/07 01:29:26;;;;;;;;;3.50;2.50;;;;;5.82;68.45;101162.94;5030623;28;45480;-68
2024/01/07 01:31:52;;;;;;;;;6.25;1.00;;;;;5.77;68.90;101162.09;5031630;28;68017;-68
2024/01/07 01:34:17;;;;;;;;;1.75;1.00;;;;;5.76;68.38;101167.31;5036288;28;75673;-69
2024/01/07 01:36:42;;;;;;;;;1.75;1.50;;;;;5.72;68.39;101176.81;5034606;28;45526;-68
2024/01/07 01:39:08;;;;;;;;;0.00;0.00;;;;;5.69;68.41;101180.25;5036225;28;65458;-69
2024/01/07 01:41:34;;;;;;;;;3.00;1.75;;;;;5.68;68.59;101177.66;5017401;28;45571;-69
2024/01/07 01:44:00;;;;;;;;;3.25;1.00;;;;;5.68;68.58;101186.34;5033281;28;65974;-68
2024/01/07 01:46:28;;;;;;;;;2.00;1.75;;;;;5.71;68.24;101186.31;5015768;28;45293;-69
2024/01/07 01:48:54;;;;;;;;;1.00;1.00;;;;;5.75;68.34;101183.72;5023141;28;45432;-69
2024/01/07 01:51:20;;;;;;;;;1.25;1.25;;;;;5.77;68.60;101182.88;5033553;28;45443;-69
2024/01/07 01:53:45;;;;;;;;;3.00;1.00;;;;;5.78;68.08;101182.00;5039617;28;45418;-69
2024/01/07 01:56:11;;;;;;;;;1.00;1.00;;;;;5.79;68.14;101186.34;5006751;28;53374;-68
2024/01/07 01:58:36;;;;;;;;;2.00;1.00;;;;;5.79;68.09;101190.66;5022379;28;54468;-69
2024/01/07 02:01:03;;;;;;;;;1.50;1.25;;;;;5.80;68.19;101192.41;5041759;28;45467;-69
2024/01/07 02:03:28;;;;;;;;;3.00;1.00;;;;;5.80;68.25;101193.25;5022394;28;45782;-69
2024/01/07 02:05:55;;;;;;;;;2.25;2.00;;;;;5.82;67.94;101196.72;5016185;28;65882;-69
2024/01/07 02:08:20;;;;;;;;;1.75;1.75;;;;;5.84;68.00;101202.78;5020974;28;45760;-68
2024/01/07 02:10:46;;;;;;;;;2.00;2.00;;;;;5.86;67.98;101200.16;5032550;28;45646;-68
2024/01/07 02:13:11;;;;;;;;;1.00;1.00;;;;;5.84;67.68;101197.59;5019168;28;76366;-68
2024/01/07 02:15:37;;;;;;;;;2.00;1.00;;;;;5.87;67.87;101204.50;5023791;28;46313;-68
2024/01/07 02:18:02;;;;;;;;;2.75;2.00;;;;;5.86;67.79;101203.66;5020149;28;45320;-69
2024/01/07 02:20:27;;;;;;;;;1.25;1.00;;;;;5.90;67.82;101201.94;5008386;28;45441;-69
2024/01/07 02:22:53;;;;;;;;;0.50;0.50;;;;;5.91;67.67;101195.84;5018455;28;47759;-68
2024/01/07 02:25:18;;;;;;;;;2.75;1.00;;;;;5.97;67.72;101205.44;5033737;28;45380;-69
2024/01/07 02:27:44;;;;;;;;;1.00;1.00;;;;;5.96;67.55;101198.47;5021933;28;45521;-69
2024/01/07 02:30:10;;;;;;;;;2.75;1.00;;;;;5.95;67.34;101204.50;5019089;28;45880;-69
2024/01/07 02:32:37;;;;;;;;;2.00;2.00;;;;;5.94;67.40;101203.63;5005491;28;46794;-69
2024/01/07 02:35:02;;;;;;;;;1.00;1.00;;;;;5.96;67.27;101198.47;5028020;28;45542;-69
2024/01/07 02:37:28;;;;;;;;;1.50;1.00;;;;;5.99;67.28;101204.53;5014847;28;45393;-69
2024/01/07 02:39:53;;;;;;;;;1.00;1.00;;;;;5.98;67.00;101202.81;4997975;28;45693;-69
2024/01/07 02:42:18;;;;;;;;;2.50;1.00;;;;;5.96;67.06;101203.69;5010827;28;70689;-69
2024/01/07 02:44:43;;;;;;;;;1.25;0.50;;;;;5.96;66.76;101214.06;5037548;28;60807;-69
2024/01/07 02:47:09;;;;;;;;;3.75;1.75;;;;;5.93;66.67;101207.09;5021927;28;62900;-69
2024/01/07 02:49:34;;;;;;;;;0.75;0.75;;;;;5.91;66.78;101203.63;5005640;28;73095;-68
2024/01/07 02:51:59;;;;;;;;;1.00;1.00;;;;;5.87;66.95;101201.91;5038300;28;63626;-69
2024/01/07 02:54:25;;;;;;;;;2.00;1.00;;;;;5.85;67.07;101199.31;5034985;28;45275;-68
2024/01/07 02:56:50;;;;;;;;;1.25;1.25;;;;;5.84;66.91;101207.09;5020811;28;58204;-69
2024/01/07 02:59:15;;;;;;;;;1.50;1.00;;;;;5.84;67.03;101202.78;5012912;28;74292;-68
2024/01/07 03:01:42;;;;;;;;;2.25;1.00;;;;;5.80;67.03;101203.63;5030488;28;60233;-69
2024/01/07 03:04:09;;;;;;;;;2.75;1.00;;;;;5.81;66.72;101212.31;5005933;28;45779;-69
2024/01/07 03:06:35;;;;;;;;;1.75;1.00;;;;;5.78;66.81;101204.50;5018366;28;45291;-69
2024/01/07 03:09:00;;;;;;;;;1.00;1.00;;;;;5.75;66.74;101210.56;5039469;28;45429;-69
2024/01/07 03:11:25;;;;;;;;;3.00;1.25;;;;;5.70;66.84;101218.38;5031550;28;69424;-68
2024/01/07 03:13:51;;;;;;;;;1.25;0.00;;;;;5.70;66.82;101220.06;5037795;28;65604;-69
2024/01/07 03:16:23;;;;;;;;;2.00;1.25;;;;;5.68;66.83;101224.41;5034154;28;66033;-69
2024/01/07 03:18:49;;;;;;;;;1.00;1.00;;;;;5.66;66.93;101224.41;5026816;28;45465;-68
2024/01/07 03:21:21;;;;;;;;;3.75;1.50;;;;;5.60;66.72;101213.16;5033668;28;48315;-69
2024/01/07 03:23:47;;;;;;;;;5.25;1.00;;;;;5.54;66.93;101213.13;5021375;28;45767;-69
2024/01/07 03:26:13;;;;;;;;;1.75;1.00;;;;;5.48;66.65;101212.25;5022697;28;45358;-68
2024/01/07 03:28:39;;;;;;;;;1.25;1.00;;;;;5.42;66.95;101207.06;5012135;28;45345;-69
2024/01/07 03:31:19;;;;;;;;;6.00;2.75;;;;;5.39;66.97;101217.44;5015860;28;45487;-68
2024/01/07 03:33:44;;;;;;;;;4.25;1.00;;;;;5.34;66.88;101211.38;5025326;28;45956;-69
2024/01/07 03:36:12;;;;;;;;;8.75;1.00;;;;;5.33;66.62;101213.13;5030153;28;45515;-68
2024/01/07 03:38:38;;;;;;;;;1.50;1.00;;;;;5.35;66.92;101220.91;5021921;28;46775;-69
2024/01/07 03:41:04;;;;;;;;;1.00;1.00;;;;;5.38;66.81;101220.88;5019753;28;45277;-69
2024/01/07 03:43:29;;;;;;;;;1.25;1.00;;;;;5.41;66.58;101215.72;5037436;28;73473;-69
2024/01/07 03:45:54;;;;;;;;;2.00;2.00;;;;;5.43;66.71;101226.97;5022169;28;45386;-69
2024/01/07 03:48:20;;;;;;;;;3.00;2.00;;;;;5.45;66.43;101219.19;5016868;28;71412;-69
2024/01/07 03:50:45;;;;;;;;;2.25;1.00;;;;;5.47;66.54;101225.22;5032882;28;45893;-69
2024/01/07 03:53:10;;;;;;;;;0.50;0.00;;;;;5.49;66.37;101224.38;5037976;28;68845;-68
2024/01/07 03:55:36;;;;;;;;;1.00;1.00;;;;;5.51;66.42;101227.00;5014909;28;62233;-69
2024/01/07 03:58:01;;;;;;;;;1.00;1.00;;;;;5.51;66.11;101227.84;5013921;28;73470;-69
2024/01/07 04:00:26;;;;;;;;;2.00;1.00;;;;;5.50;66.01;101222.66;5029378;28;73540;-69
2024/01/07 04:02:52;;;;;;;;;3.00;1.75;;;;;5.47;65.91;101218.34;5037364;28;68125;-69
2024/01/07 04:05:17;;;;;;;;;2.00;1.00;;;;;5.50;65.87;101235.63;5034834;28;54563;-66
2024/01/07 04:07:43;;;;;;;;;2.25;1.00;;;;;5.47;66.03;101227.84;5015561;28;46152;-67
2024/01/07 04:10:08;;;;;;;;;2.50;0.00;;;;;5.50;65.84;101230.44;4990646;28;47504;-67
2024/01/07 04:12:34;;;;;;;;;1.00;1.00;;;;;5.52;65.89;101231.31;5030121;28;45336;-66
2024/01/07 04:14:59;;;;;;;;;6.75;1.00;;;;;5.53;65.57;101227.84;5021676;28;45294;-66
2024/01/07 04:17:25;;;;;;;;;1.50;0.00;;;;;5.50;65.66;101228.69;5016001;28;46713;-66
2024/01/07 04:19:51;;;;;;;;;0.25;0.25;;;;;5.47;65.60;101227.84;5032816;28;47133;-66
2024/01/07 04:22:17;;;;;;;;;1.00;1.00;;;;;5.50;65.43;101235.63;5020298;28;45389;-66
2024/01/07 04:24:42;;;;;;;;;2.50;1.00;;;;;5.49;65.44;101228.72;5022043;28;50057;-66
2024/01/07 04:27:07;;;;;;;;;3.00;1.00;;;;;5.48;65.35;101233.03;5003440;28;45345;-66
2024/01/07 04:29:33;;;;;;;;;0.75;0.75;;;;;5.49;65.33;101226.13;5037658;28;73545;-66
2024/01/07 04:31:58;;;;;;;;;1.00;1.00;;;;;5.48;65.41;101232.16;5021424;28;45296;-66
2024/01/07 04:34:24;;;;;;;;;1.50;1.00;;;;;5.49;65.36;101239.13;5020285;28;68609;-67
2024/01/07 04:36:49;;;;;;;;;1.00;1.00;;;;;5.49;65.51;101232.19;5011474;28;45523;-66
2024/01/07 04:39:15;;;;;;;;;1.75;1.00;;;;;5.48;65.47;101239.97;5012063;28;45960;-66
2024/01/07 04:41:40;;;;;;;;;4.50;1.00;;;;;5.49;65.47;101239.97;5010684;28;72183;-66
2024/01/07 04:44:05;;;;;;;;;2.25;1.00;;;;;5.50;64.93;101246.00;5024797;28;59383;-66
2024/01/07 04:46:34;;;;;;;;;1.25;1.00;;;;;5.45;65.22;101242.53;5015926;28;45373;-66
2024/01/07 04:48:59;;;;;;;;;1.00;1.00;;;;;5.42;65.13;101243.41;4999173;28;47596;-67
2024/01/07 04:51:25;;;;;;;;;3.00;1.00;;;;;5.44;65.17;101244.28;5016190;28;64284;-66
2024/01/07 04:53:50;;;;;;;;;5.25;1.25;;;;;5.45;65.11;101242.53;5014940;28;45534;-66
2024/01/07 04:56:15;;;;;;;;;6.00;1.00;;;;;5.45;65.35;101242.53;5014260;28;62780;-66
2024/01/07 04:58:41;;;;;;;;;1.00;1.00;;;;;5.45;65.04;101239.94;5017758;28;66836;-67
2024/01/07 05:01:06;;;;;;;;;1.25;1.25;;;;;5.46;65.12;101252.06;5019154;28;45665;-67
2024/01/07 05:03:32;;;;;;;;;5.50;2.00;;;;;5.46;65.20;101245.13;5014730;28;67716;-68
2024/01/07 05:05:57;;;;;;;;;2.00;1.00;;;;;5.47;65.16;101244.28;5010453;28;45660;-68
2024/01/07 05:08:22;;;;;;;;;1.00;0.00;;;;;5.48;65.13;101252.94;5017809;28;61922;-67
2024/01/07 05:10:48;;;;;;;;;2.00;2.00;;;;;5.47;65.14;101248.59;5010597;28;64247;-67
2024/01/07 05:13:13;;;;;;;;;2.00;2.00;;;;;5.47;65.04;101251.19;5025634;28;45507;-67
2024/01/07 05:15:38;;;;;;;;;1.75;1.00;;;;;5.45;65.01;101258.13;5017979;28;45298;-67
2024/01/07 05:18:07;;;;;;;;;1.00;1.00;;;;;5.43;64.96;101258.09;5015116;28;58439;-67
2024/01/07 05:20:32;;;;;;;;;1.75;1.00;;;;;5.41;65.04;101256.38;5018054;28;45855;-67
2024/01/07 05:22:58;;;;;;;;;3.00;1.00;;;;;5.39;65.02;101256.38;5014260;28;64325;-67
2024/01/07 05:25:23;;;;;;;;;1.75;1.75;;;;;5.43;65.03;101265.03;5011841;28;45443;-67
2024/01/07 05:27:48;;;;;;;;;2.75;1.00;;;;;5.42;65.11;101263.28;5008745;28;68589;-67
2024/01/07 05:30:14;;;;;;;;;1.00;1.00;;;;;5.42;64.96;101266.78;5013997;28;49096;-67
2024/01/07 05:32:39;;;;;;;;;1.00;1.00;;;;;5.36;65.37;101260.69;5018327;28;53937;-67
2024/01/07 05:35:08;;;;;;;;;3.25;1.00;;;;;5.37;65.34;101260.69;5009352;28;57394;-67
2024/01/07 05:37:33;;;;;;;;;3.00;1.50;;;;;5.35;65.13;101269.31;5006035;28;46408;-67
2024/01/07 05:42:48;;;;;;;;;2.75;1.00;;;;;5.28;65.32;101278.84;5009061;28;45312;-67
2024/01/07 05:45:13;;;;;;;;;2.25;1.75;;;;;5.24;65.52;101266.69;5000497;28;45643;-67
2024/01/07 05:47:40;;;;;;;;;3.00;2.00;;;;;5.26;65.57;101276.25;4998286;28;47976;-67
2024/01/07 05:50:06;;;;;;;;;2.25;1.00;;;;;5.21;65.67;101264.97;5018222;28;45398;-67
2024/01/07 05:52:31;;;;;;;;;3.00;1.50;;;;;5.22;65.81;101269.28;5012672;28;45368;-67
2024/01/07 05:54:57;;;;;;;;;1.25;1.00;;;;;5.21;66.03;101279.69;5003280;28;71995;-67
2024/01/07 05:57:22;;;;;;;;;6.00;2.25;;;;;5.25;66.00;101282.28;5015226;28;46009;-67
2024/01/07 05:59:47;;;;;;;;;2.00;2.00;;;;;5.28;66.56;101278.84;5024264;28;65566;-67
2024/01/07 06:02:13;;;;;;;;;2.00;1.00;;;;;5.27;66.04;101277.09;5020697;28;45286;-67
2024/01/07 06:04:38;;;;;;;;;8.25;3.00;;;;;5.32;66.08;101297.00;5020159;28;46013;-67
2024/01/07 06:07:04;;;;;;;;;1.25;1.25;;;;;5.30;65.99;101290.94;5016229;28;66228;-67
2024/01/07 06:09:29;;;;;;;;;4.25;2.00;;;;;5.29;66.09;101293.53;5014470;28;45226;-67
2024/01/07 06:11:55;;;;;;;;;2.50;2.00;;;;;5.32;66.22;101285.78;5014242;28;45455;-67
2024/01/07 06:14:22;;;;;;;;;7.00;1.25;;;;;5.36;66.27;101294.44;5003769;28;45409;-66
2024/01/07 06:16:47;;;;;;;;;4.50;2.00;;;;;5.32;66.18;101288.38;5011118;28;45343;-66
2024/01/07 06:19:14;;;;;;;;;2.25;2.25;;;;;5.33;66.47;101287.50;5030669;28;71920;-66
2024/01/07 06:21:40;;;;;;;;;2.00;2.00;;;;;5.38;66.31;101290.09;5012945;28;45381;-66
2024/01/07 06:24:07;;;;;;;;;4.75;2.00;;;;;5.38;66.51;101290.09;5016270;28;45395;-67
2024/01/07 06:26:32;;;;;;;;;5.50;2.75;;;;;5.36;66.36;101290.09;5018205;28;45436;-66
2024/01/07 06:28:58;;;;;;;;;3.00;1.75;;;;;5.30;66.48;101290.94;5019829;28;45635;-66
2024/01/07 06:31:23;;;;;;;;;2.00;2.00;;;;;5.30;66.69;101293.53;5022406;28;45537;-68
2024/01/07 06:33:49;;;;;;;;;4.75;3.00;;;;;5.29;66.77;101285.75;5021684;28;45202;-66
2024/01/07 06:36:14;;;;;;;;;7.50;5.00;;;;;5.30;66.68;101293.53;5015162;28;45867;-66
2024/01/07 06:38:39;;;;;;;;;8.00;6.00;;;;;5.29;66.91;101296.13;5008303;28;45416;-67
2024/01/07 06:41:05;;;;;;;;;10.75;5.50;;;;;5.27;66.87;101301.31;5014967;28;50355;-67
2024/01/07 06:43:32;;;;;;;;;3.00;2.00;;;;;5.26;67.07;101296.13;5010560;28;45796;-67
2024/01/07 06:45:57;;;;;;;;;4.25;4.25;;;;;5.22;67.21;101304.75;5035959;28;46684;-67
2024/01/07 06:48:22;;;;;;;;;3.00;2.75;;;;;5.23;67.26;101306.50;5003372;28;72029;-67
2024/01/07 06:50:47;;;;;;;;;2.25;2.00;;;;;5.22;67.50;101302.16;5000643;28;68320;-67
2024/01/07 06:53:13;;;;;;;;;3.25;3.00;;;;;5.20;67.47;101309.06;5015755;28;45535;-67
2024/01/07 06:55:39;;;;;;;;;6.00;2.00;;;;;5.13;67.37;101316.84;5013404;28;45382;-67
2024/01/07 06:58:04;;;;;;;;;5.75;3.00;;;;;5.11;67.66;101320.28;5003853;28;45451;-67
2024/01/07 07:00:30;;;;;;;;;2.00;1.00;;;;;5.11;67.64;101328.91;5017373;28;45558;-67
2024/01/07 07:02:55;;;;;;;;;2.00;2.00;;;;;5.09;67.98;101328.03;5015409;28;68306;-66
2024/01/07 07:05:20;;;;;;;;;3.50;2.00;;;;;5.06;67.91;101333.22;5018019;28;74211;-66
2024/01/07 07:07:46;;;;;;;;;3.25;2.00;;;;;5.00;67.85;101335.78;5020426;28;45309;-66
2024/01/07 07:10:11;;;;;;;;;1.50;1.50;;;;;4.93;68.42;101327.09;5018609;28;69423;-66
2024/01/07 07:12:36;;;;;;;;;7.00;2.75;;;;;4.91;68.02;101322.78;5017122;28;67458;-66
2024/01/07 07:15:02;;;;;;;;;2.25;1.00;;;;;4.86;68.46;101327.06;5019822;28;71584;-66
2024/01/07 07:17:27;;;;;;;;;1.25;1.25;;;;;4.85;68.65;101335.69;5015454;28;45475;-66
2024/01/07 07:19:52;;;;;;;;;2.00;2.00;;;;;4.83;68.53;101342.59;5024869;28;68102;-66
2024/01/07 07:22:18;;;;;;;;;2.50;2.00;;;;;4.84;68.83;101341.75;5017152;28;61597;-66
2024/01/07 07:24:43;;;;;;;;;3.00;2.00;;;;;4.87;68.74;101349.53;5019835;28;55989;-66
2024/01/07 07:27:08;;;;;;;;;1.75;1.00;;;;;4.90;68.80;101346.94;5014424;28;73147;-66
2024/01/07 07:29:34;;;;;;;;;1.00;1.00;;;;;4.92;68.66;101353.91;5014139;28;45897;-67
2024/01/07 07:31:59;;;;;;;;;2.25;2.00;;;;;4.96;68.95;101352.19;5013322;28;73080;-67
2024/01/07 07:34:24;;;;;;;;;6.75;2.75;;;;;5.01;68.66;101358.28;5012852;28;73025;-66
2024/01/07 07:36:49;;;;;;;;;5.50;2.25;;;;;5.03;68.67;101350.47;4997040;28;72006;-67
2024/01/07 07:39:17;;;;;;;;;2.00;2.00;;;;;5.08;68.30;101356.56;5005797;28;68256;-67
2024/01/07 07:41:43;;;;;;;;;7.00;2.75;;;;;5.09;67.85;101358.31;5033250;28;75316;-67
2024/01/07 07:44:08;;;;;;;;;5.50;1.00;;;;;5.06;67.40;101355.69;5010181;28;47414;-67
2024/01/07 07:46:33;;;;;;;;;3.00;3.00;;;;;5.02;67.35;101349.63;5014168;28;45594;-68
2024/01/07 07:49:00;;;;;;;;;6.75;4.75;;;;;5.04;66.92;101355.69;5017788;28;69116;-66
2024/01/07 07:51:26;;;;;;;;;4.50;1.00;;;;;4.97;66.50;101355.66;5019328;28;45281;-67
2024/01/07 07:53:51;;;;;;;;;6.50;3.00;;;;;4.86;66.55;101350.41;5034391;28;47038;-67
2024/01/07 07:56:17;;;;;;;;;6.75;5.50;;;;;4.83;66.49;101361.59;5018832;28;45519;-67
2024/01/07 07:58:42;;;;;;;;;1.75;1.00;;;;;4.80;66.26;101361.59;5010956;28;61572;-67
2024/01/07 08:01:08;;;;;;;;;5.75;3.00;;;;;4.72;66.64;101364.13;5012172;28;45479;-66
2024/01/07 08:03:33;;;;;;;;;3.25;3.25;;;;;4.72;66.65;101377.09;5017820;28;47184;-66
2024/01/07 08:05:58;;;;;;;;;4.75;3.50;;;;;4.70;66.48;101377.94;5019973;28;45324;-66
2024/01/07 08:08:24;;;;;;;;;9.75;5.00;;;;;4.70;66.77;101385.72;5016841;28;45463;-66
2024/01/07 08:10:49;;;;;;;;;3.50;3.00;;;;;4.71;66.98;101387.44;5011615;28;73253;-66
2024/01/07 08:13:14;;;;;;;;;7.00;6.00;;;;;4.70;66.79;101390.91;5016493;28;45489;-66
2024/01/07 08:15:40;;;;;;;;;5.25;3.00;;;;;4.73;66.60;101399.56;5004646;28;45273;-66
2024/01/07 08:18:05;;;;;;;;;12.75;5.75;;;;;4.72;66.50;101394.38;5017712;28;65063;-66
2024/01/07 08:20:30;;;;;;;;;3.25;2.00;;;;;4.74;66.56;101397.84;5015866;28;54998;-66
2024/01/07 08:22:56;;;;;;;;;6.50;2.00;;;;;4.76;66.43;101393.53;5017593;28;62712;-66
2024/01/07 08:25:22;;;;;;;;;7.75;7.25;;;;;4.78;66.13;101414.28;5017963;28;70071;-66
2024/01/07 08:27:48;;;;;;;;;5.50;5.25;;;;;4.79;65.12;101403.06;5018542;28;45667;-68
2024/01/07 08:30:13;;;;;;;;;5.00;5.00;;;;;4.73;65.37;101404.75;5021108;28;45715;-69
2024/01/07 08:32:39;;;;;;;;;8.75;5.75;;;;;4.71;65.71;101408.19;5011037;28;45425;-68
2024/01/07 08:35:05;;;;;;;;;5.50;5.00;;;;;4.72;65.79;101408.19;5011569;28;45716;-68
2024/01/07 08:37:30;;;;;;;;;6.00;4.50;;;;;4.74;65.45;101400.44;5002103;28;45775;-69
2024/01/07 08:39:56;;;;;;;;;7.50;5.00;;;;;4.71;65.66;101401.28;5011182;28;64973;-69
2024/01/07 08:42:21;;;;;;;;;6.75;3.50;;;;;4.68;65.89;101401.25;5031613;28;72212;-67
2024/01/07 08:44:47;;;;;;;;;7.50;5.00;;;;;4.72;65.96;101405.59;5016993;28;71829;-65
2024/01/07 08:47:13;;;;;;;;;2.50;1.75;;;;;4.74;66.17;101410.81;5008569;28;45307;-67
2024/01/07 08:49:38;;;;;;;;;7.75;6.00;;;;;4.75;66.04;101413.41;5012468;28;45343;-68
2024/01/07 08:52:04;;;;;;;;;7.25;7.25;;;;;4.77;66.36;101409.97;5027642;28;45510;-67
2024/01/07 08:54:30;;;;;;;;;5.75;5.00;;;;;4.81;66.17;101414.31;5012981;28;45431;-67
2024/01/07 08:56:55;;;;;;;;;10.00;6.00;;;;;4.82;65.98;101416.94;5013203;28;66510;-68
2024/01/07 08:59:20;;;;;;;;;7.50;2.00;;;;;4.85;65.87;101426.44;5017347;28;45137;-68
2024/01/07 09:01:46;;;;;;;;;5.25;5.25;;;;;4.85;65.70;101413.47;5008705;28;72580;-74
2024/01/07 09:04:11;;;;;;;;;10.50;6.00;;;;;4.88;65.70;101427.34;5024868;28;73052;-69
2024/01/07 09:06:36;;;;;;;;;11.00;10.00;;;;;4.90;65.48;101409.19;5013362;28;66924;-74
2024/01/07 09:09:02;;;;;;;;;12.50;9.50;;;;;4.88;65.15;101414.38;5014332;28;72294;-72
2024/01/07 09:11:27;;;;;;;;;10.50;8.00;;;;;4.89;64.88;101426.50;5013432;28;47184;-72
2024/01/07 09:13:53;;;;;;;;;10.25;7.25;;;;;4.89;64.84;101425.63;5005017;28;45513;-72
2024/01/07 09:16:18;;;;;;;;;7.75;7.00;;;;;4.89;64.41;101442.06;5017130;28;45454;-72
2024/01/07 09:18:44;;;;;;;;;8.25;6.00;;;;;4.88;64.33;101429.06;5015777;28;45708;-72
2024/01/07 09:21:09;;;;;;;;;7.00;6.25;;;;;4.88;64.39;101421.28;5017239;28;46858;-72
2024/01/07 09:23:36;;;;;;;;;12.50;11.00;;;;;4.86;64.25;101417.81;5017385;28;45310;-72
2024/01/07 09:26:01;;;;;;;;;8.00;3.00;;;;;4.85;64.26;101431.63;5006745;28;45242;-71
2024/01/07 09:28:26;;;;;;;;;15.25;7.00;;;;;4.84;63.92;101429.91;5008308;28;45491;-72
2024/01/07 09:30:52;;;;;;;;;10.00;5.00;;;;;4.83;63.93;101438.53;5019933;28;69070;-73
2024/01/07 09:33:17;;;;;;;;;10.00;10.00;;;;;4.83;64.20;101441.13;5003778;28;45428;-72
2024/01/07 09:35:43;;;;;;;;;11.50;8.25;;;;;4.85;64.26;101447.19;5020768;28;45492;-73
2024/01/07 09:38:09;;;;;;;;;11.75;7.00;;;;;4.86;64.02;101438.56;5016453;28;45400;-73
2024/01/07 09:40:34;;;;;;;;;15.50;11.75;;;;;4.87;63.55;101436.00;5012739;28;45341;-72
2024/01/07 09:43:00;;;;;;;;;11.75;8.75;;;;;4.89;63.47;101447.25;5016679;28;72839;-72
2024/01/07 09:45:25;;;;;;;;;13.00;7.50;;;;;4.91;63.38;101462.81;5018398;28;45791;-72
2024/01/07 09:47:51;;;;;;;;;14.25;11.00;;;;;4.89;63.39;101451.56;5012069;28;56467;-72
2024/01/07 09:50:16;;;;;;;;;15.75;11.00;;;;;4.86;63.07;101448.94;5021424;28;45355;-72
2024/01/07 09:52:44;;;;;;;;;17.00;8.75;;;;;4.83;63.68;101452.38;5022179;28;45484;-72
2024/01/07 09:55:12;;;;;;;;;12.50;9.75;;;;;4.87;63.46;101456.75;5021723;28;45464;-72
2024/01/07 09:57:40;;;;;;;;;13.00;10.50;;;;;4.88;63.50;101450.69;5010088;28;45235;-71
2024/01/07 10:00:07;;;;;;;;;15.75;11.00;;;;;4.92;63.42;101461.94;5011035;28;45521;-72
2024/01/07 10:02:33;;;;;;;;;11.25;10.25;;;;;4.95;63.72;101457.66;5020557;28;45540;-73
2024/01/07 10:04:58;;;;;;;;;19.00;11.75;;;;;5.00;63.96;101456.84;5020494;28;45486;-73
2024/01/07 10:07:25;;;;;;;;;15.50;9.00;;;;;5.07;63.41;101459.47;5018306;28;72651;-73
2024/01/07 10:09:50;;;;;;;;;12.50;8.75;;;;;5.07;63.36;101448.25;5019710;28;45522;-73
2024/01/07 10:12:15;;;;;;;;;20.75;17.50;;;;;5.08;63.12;101465.53;5015735;28;45460;-73
2024/01/07 10:14:41;;;;;;;;;10.25;8.75;;;;;5.06;62.90;101465.50;5032458;28;57737;-73
2024/01/07 10:17:19;;;;;;;;;16.25;11.00;;;;;5.04;63.10;101469.81;5015379;28;45276;-74
2024/01/07 10:19:46;;;;;;;;;15.00;14.00;;;;;5.02;62.83;101468.09;5033284;28;45463;-73
2024/01/07 10:22:12;;;;;;;;;16.00;10.00;;;;;4.99;62.98;101463.72;5029384;28;45321;-73
2024/01/07 10:24:39;;;;;;;;;14.25;12.25;;;;;4.97;63.03;101470.63;5018474;28;45427;-73
2024/01/07 10:27:06;;;;;;;;;11.00;7.50;;;;;4.98;63.06;101476.72;5000347;28;45453;-73
2024/01/07 10:29:32;;;;;;;;;13.25;11.50;;;;;4.94;63.17;101471.50;5032485;28;48288;-73
2024/01/07 10:31:59;;;;;;;;;17.75;11.75;;;;;4.93;62.96;101472.34;5006838;28;45417;-73
2024/01/07 10:34:25;;;;;;;;;13.00;10.75;;;;;4.91;63.05;101474.06;5011930;28;45482;-73
2024/01/07 10:36:56;;;;;;;;;16.75;12.50;;;;;4.91;63.40;101476.66;5023517;28;45340;-73
2024/01/07 10:39:21;;;;;;;;;12.00;11.00;;;;;4.93;63.23;101476.66;5012501;28;45346;-73
2024/01/07 10:41:47;;;;;;;;;21.50;18.25;;;;;4.95;63.19;101478.41;5027123;28;45486;-73
2024/01/07 10:44:13;;;;;;;;;20.00;15.00;;;;;4.92;63.07;101481.00;5014931;28;64890;-73
2024/01/07 10:46:39;;;;;;;;;17.50;12.00;;;;;4.93;63.18;101474.06;5002313;28;75414;-74
2024/01/07 10:49:15;;;;;;;;;19.25;16.50;;;;;4.97;63.46;101478.41;5017937;28;47379;-73
2024/01/07 10:51:41;;;;;;;;;23.25;16.00;;;;;5.03;62.75;101469.81;5010634;28;45295;-73
2024/01/07 10:54:08;;;;;;;;;14.25;11.75;;;;;5.05;63.11;101478.50;5017611;28;62729;-73
2024/01/07 10:56:40;;;;;;;;;19.75;15.50;;;;;5.09;63.05;101477.66;5009953;28;45411;-73
2024/01/07 10:59:05;;;;;;;;;10.50;10.50;;;;;5.09;63.32;101481.09;5007369;28;46295;-73
2024/01/07 11:01:31;;;;;;;;;23.50;17.50;;;;;5.09;62.90;101475.06;5009181;28;67611;-73
2024/01/07 11:04:02;;;;;;;;;19.25;13.25;;;;;5.11;63.10;101473.34;5028159;28;59212;-73
2024/01/07 11:06:46;;;;;;;;;20.75;16.25;;;;;5.10;62.98;101477.66;5020248;28;45418;-73
2024/01/07 11:09:14;;;;;;;;;15.50;7.00;;;;;5.08;62.99;101481.09;5012131;28;46715;-73
2024/01/07 11:11:43;;;;;;;;;21.75;18.50;;;;;5.04;62.92;101474.16;5018363;28;45583;-73
2024/01/07 11:14:37;;;;;;;;;23.50;19.50;;;;;5.00;63.12;101481.03;5014743;28;45458;-73
2024/01/07 11:17:03;;;;;;;;;21.25;18.25;;;;;4.94;63.25;101479.28;5020901;28;45337;-72
2024/01/07 11:19:28;;;;;;;;;28.00;15.25;;;;;4.89;63.29;101493.91;5019760;28;45360;-72
2024/01/07 11:22:29;;;;;;;;;32.75;24.50;;;;;4.84;63.19;101480.03;5009305;28;67035;-72
2024/01/07 11:24:58;;;;;;;;;15.25;11.00;;;;;4.85;63.39;101486.09;5027546;28;45289;-72
2024/01/07 11:27:33;;;;;;;;;30.50;20.50;;;;;4.85;63.52;101486.09;5013972;28;45508;-72
2024/01/07 11:30:05;;;;;;;;;28.50;21.75;;;;;4.84;63.33;101484.38;5018821;28;46150;-73